Terminal Aerodrome Forecast
Issued by NWS

Home | Current Version | Previous Version | Text Only | Print | Product List | Glossary On
Versions: 1 2 3 4 5 6 7 8 9 10 11 12 13 14 15 16 17 18 19 20 21 22 23 24 25 26 27 28 29 30 31 32 33 34 35 36 37 38 39 40 41 42 43 44 45 46 47 48
958
FTUS44 KHGX 142333
TAFCXO
TAF
KCXO 142333Z 1500/1524 17011KT P6SM SCT035 BKN060
     FM150400 16005KT P6SM SCT015 BKN025
     FM150900 19005KT P6SM BKN015
     FM151300 22010KT P6SM VCSH BKN010 OVC025
     FM151600 26014KT P6SM SCT025 BKN035
     FM151800 31014G24KT P6SM FEW040
     FM152300 35005KT P6SM SKC=

USA.gov is the U.S. government's official web portal to all federal, state and local government web resources and services.